sensor_id;sensor_type;location;lat;lon;timestamp;temperature;humidity
4406;DHT22;2216;53.806;11.598;2022-11-20T00:01:19;2.30;74.20
4406;DHT22;2216;53.806;11.598;2022-11-20T00:03:47;2.30;74.10
4406;DHT22;2216;53.806;11.598;2022-11-20T00:06:17;2.40;74.20
4406;DHT22;2216;53.806;11.598;2022-11-20T00:08:44;2.30;74.20
4406;DHT22;2216;53.806;11.598;2022-11-20T00:11:13;2.30;74.20
4406;DHT22;2216;53.806;11.598;2022-11-20T00:13:39;2.50;74.30
4406;DHT22;2216;53.806;11.598;2022-11-20T00:16:08;2.30;74.10
4406;DHT22;2216;53.806;11.598;2022-11-20T00:18:38;2.30;74.10
4406;DHT22;2216;53.806;11.598;2022-11-20T00:21:04;2.40;74.20
4406;DHT22;2216;53.806;11.598;2022-11-20T00:23:32;2.40;74.20
4406;DHT22;2216;53.806;11.598;2022-11-20T00:26:04;2.30;74.10
4406;DHT22;2216;53.806;11.598;2022-11-20T00:28:31;2.30;74.10
4406;DHT22;2216;53.806;11.598;2022-11-20T00:31:04;2.30;74.10
4406;DHT22;2216;53.806;11.598;2022-11-20T00:33:35;2.30;74.10
4406;DHT22;2216;53.806;11.598;2022-11-20T00:36:05;2.30;74.10
4406;DHT22;2216;53.806;11.598;2022-11-20T00:38:35;2.30;74.10
4406;DHT22;2216;53.806;11.598;2022-11-20T00:41:04;2.30;74.10
4406;DHT22;2216;53.806;11.598;2022-11-20T00:43:31;2.30;74.10
4406;DHT22;2216;53.806;11.598;2022-11-20T00:46:02;2.30;74.10
4406;DHT22;2216;53.806;11.598;2022-11-20T00:48:32;2.30;74.10
4406;DHT22;2216;53.806;11.598;2022-11-20T00:50:58;2.30;74.10
4406;DHT22;2216;53.806;11.598;2022-11-20T00:53:24;2.20;74.10
4406;DHT22;2216;53.806;11.598;2022-11-20T00:55:55;2.30;74.10
4406;DHT22;2216;53.806;11.598;2022-11-20T00:58:22;2.20;74.10
4406;DHT22;2216;53.806;11.598;2022-11-20T01:00:48;2.30;74.20
4406;DHT22;2216;53.806;11.598;2022-11-20T01:03:17;2.30;74.20
4406;DHT22;2216;53.806;11.598;2022-11-20T01:05:43;2.20;74.10
4406;DHT22;2216;53.806;11.598;2022-11-20T01:08:09;2.30;74.20
4406;DHT22;2216;53.806;11.598;2022-11-20T01:10:34;2.30;74.20
4406;DHT22;2216;53.806;11.598;2022-11-20T01:13:00;2.20;74.10
4406;DHT22;2216;53.806;11.598;2022-11-20T01:15:44;2.30;74.20
4406;DHT22;2216;53.806;11.598;2022-11-20T01:18:10;2.30;74.20
4406;DHT22;2216;53.806;11.598;2022-11-20T01:20:36;2.30;74.30
4406;DHT22;2216;53.806;11.598;2022-11-20T01:23:02;2.30;74.30
4406;DHT22;2216;53.806;11.598;2022-11-20T01:25:29;2.30;74.30
4406;DHT22;2216;53.806;11.598;2022-11-20T01:27:55;2.30;74.30
4406;DHT22;2216;53.806;11.598;2022-11-20T01:30:20;2.30;75.00
4406;DHT22;2216;53.806;11.598;2022-11-20T01:32:46;2.30;74.30
4406;DHT22;2216;53.806;11.598;2022-11-20T01:35:12;2.30;74.30
4406;DHT22;2216;53.806;11.598;2022-11-20T01:37:37;2.30;74.30
4406;DHT22;2216;53.806;11.598;2022-11-20T01:40:03;2.30;74.30
4406;DHT22;2216;53.806;11.598;2022-11-20T01:42:29;2.30;74.30
4406;DHT22;2216;53.806;11.598;2022-11-20T01:48:40;2.30;74.20
4406;DHT22;2216;53.806;11.598;2022-11-20T01:51:19;2.30;74.20
4406;DHT22;2216;53.806;11.598;2022-11-20T01:53:46;2.30;74.20
4406;DHT22;2216;53.806;11.598;2022-11-20T01:56:13;2.30;74.30
4406;DHT22;2216;53.806;11.598;2022-11-20T01:58:48;2.40;74.30
4406;DHT22;2216;53.806;11.598;2022-11-20T02:01:16;2.30;74.20
4406;DHT22;2216;53.806;11.598;2022-11-20T02:03:43;2.30;74.30
4406;DHT22;2216;53.806;11.598;2022-11-20T02:06:33;2.40;74.30
4406;DHT22;2216;53.806;11.598;2022-11-20T02:09:01;2.30;74.20
4406;DHT22;2216;53.806;11.598;2022-11-20T02:11:27;2.30;74.20
4406;DHT22;2216;53.806;11.598;2022-11-20T02:13:53;2.30;74.20
4406;DHT22;2216;53.806;11.598;2022-11-20T02:16:29;2.30;74.20
4406;DHT22;2216;53.806;11.598;2022-11-20T02:18:59;2.40;74.20
4406;DHT22;2216;53.806;11.598;2022-11-20T02:24:20;2.30;74.20
4406;DHT22;2216;53.806;11.598;2022-11-20T02:27:00;2.30;74.20
4406;DHT22;2216;53.806;11.598;2022-11-20T02:29:47;2.30;74.20
4406;DHT22;2216;53.806;11.598;2022-11-20T02:32:29;2.20;74.20
4406;DHT22;2216;53.806;11.598;2022-11-20T02:34:56;2.30;74.20
4406;DHT22;2216;53.806;11.598;2022-11-20T02:37:22;2.30;74.20
4406;DHT22;2216;53.806;11.598;2022-11-20T02:39:50;2.20;74.10
4406;DHT22;2216;53.806;11.598;2022-11-20T02:42:16;2.20;74.10
4406;DHT22;2216;53.806;11.598;2022-11-20T02:44:42;2.20;74.10
4406;DHT22;2216;53.806;11.598;2022-11-20T02:47:08;2.20;74.10
4406;DHT22;2216;53.806;11.598;2022-11-20T02:49:34;2.30;74.30
4406;DHT22;2216;53.806;11.598;2022-11-20T02:52:00;2.30;74.20
4406;DHT22;2216;53.806;11.598;2022-11-20T02:54:26;2.20;74.20
4406;DHT22;2216;53.806;11.598;2022-11-20T02:56:52;2.20;74.30
4406;DHT22;2216;53.806;11.598;2022-11-20T02:59:17;2.10;74.20
4406;DHT22;2216;53.806;11.598;2022-11-20T03:01:43;2.30;74.30
4406;DHT22;2216;53.806;11.598;2022-11-20T03:04:09;2.20;74.20
4406;DHT22;2216;53.806;11.598;2022-11-20T03:06:34;2.20;74.30
4406;DHT22;2216;53.806;11.598;2022-11-20T03:09:00;2.20;74.20
4406;DHT22;2216;53.806;11.598;2022-11-20T03:11:26;2.20;74.20
4406;DHT22;2216;53.806;11.598;2022-11-20T03:13:52;2.20;74.20
4406;DHT22;2216;53.806;11.598;2022-11-20T03:16:20;2.20;74.20
4406;DHT22;2216;53.806;11.598;2022-11-20T03:18:47;2.20;74.20
4406;DHT22;2216;53.806;11.598;2022-11-20T03:21:14;2.20;74.20
4406;DHT22;2216;53.806;11.598;2022-11-20T03:23:40;2.20;74.20
4406;DHT22;2216;53.806;11.598;2022-11-20T03:26:16;2.30;74.30
4406;DHT22;2216;53.806;11.598;2022-11-20T03:28:51;2.20;74.20
4406;DHT22;2216;53.806;11.598;2022-11-20T03:31:24;2.10;74.20
4406;DHT22;2216;53.806;11.598;2022-11-20T03:33:53;2.20;74.30
4406;DHT22;2216;53.806;11.598;2022-11-20T03:36:20;2.10;74.20
4406;DHT22;2216;53.806;11.598;2022-11-20T03:38:47;2.10;74.20
4406;DHT22;2216;53.806;11.598;2022-11-20T03:41:20;2.10;74.30
4406;DHT22;2216;53.806;11.598;2022-11-20T03:43:51;2.20;74.30
4406;DHT22;2216;53.806;11.598;2022-11-20T03:46:18;2.20;74.30
4406;DHT22;2216;53.806;11.598;2022-11-20T03:48:43;2.20;74.40
4406;DHT22;2216;53.806;11.598;2022-11-20T03:51:14;2.10;74.30
4406;DHT22;2216;53.806;11.598;2022-11-20T03:53:43;2.10;74.30
4406;DHT22;2216;53.806;11.598;2022-11-20T03:56:11;2.30;74.50
4406;DHT22;2216;53.806;11.598;2022-11-20T03:58:38;2.20;74.40
4406;DHT22;2216;53.806;11.598;2022-11-20T04:01:13;2.20;74.40
4406;DHT22;2216;53.806;11.598;2022-11-20T04:03:44;2.20;74.40
4406;DHT22;2216;53.806;11.598;2022-11-20T04:06:16;2.20;74.40
4406;DHT22;2216;53.806;11.598;2022-11-20T04:08:49;2.20;74.40
4406;DHT22;2216;53.806;11.598;2022-11-20T04:11:22;2.20;74.40
4406;DHT22;2216;53.806;11.598;2022-11-20T04:13:51;2.10;74.30
4406;DHT22;2216;53.806;11.598;2022-11-20T04:16:19;2.10;74.30
4406;DHT22;2216;53.806;11.598;2022-11-20T04:18:45;2.10;74.30
4406;DHT22;2216;53.806;11.598;2022-11-20T04:21:11;2.20;74.40
4406;DHT22;2216;53.806;11.598;2022-11-20T04:23:37;2.20;74.40
4406;DHT22;2216;53.806;11.598;2022-11-20T04:26:09;2.20;74.50
4406;DHT22;2216;53.806;11.598;2022-11-20T04:28:36;2.10;75.10
4406;DHT22;2216;53.806;11.598;2022-11-20T04:31:04;2.20;74.40
4406;DHT22;2216;53.806;11.598;2022-11-20T04:33:31;2.20;74.40
4406;DHT22;2216;53.806;11.598;2022-11-20T04:36:04;2.20;74.40
4406;DHT22;2216;53.806;11.598;2022-11-20T04:38:31;2.20;74.40
4406;DHT22;2216;53.806;11.598;2022-11-20T04:41:02;2.20;74.40
4406;DHT22;2216;53.806;11.598;2022-11-20T04:43:30;2.30;74.50
4406;DHT22;2216;53.806;11.598;2022-11-20T04:45:57;2.20;74.50
4406;DHT22;2216;53.806;11.598;2022-11-20T04:48:23;2.20;74.50
4406;DHT22;2216;53.806;11.598;2022-11-20T04:50:50;2.20;74.50
4406;DHT22;2216;53.806;11.598;2022-11-20T04:53:16;2.20;74.50
4406;DHT22;2216;53.806;11.598;2022-11-20T04:55:42;2.20;74.50
4406;DHT22;2216;53.806;11.598;2022-11-20T04:58:07;2.20;74.50
4406;DHT22;2216;53.806;11.598;2022-11-20T05:00:33;2.20;74.50
4406;DHT22;2216;53.806;11.598;2022-11-20T05:02:59;2.20;74.50
4406;DHT22;2216;53.806;11.598;2022-11-20T05:05:24;2.20;74.50
4406;DHT22;2216;53.806;11.598;2022-11-20T05:07:50;2.20;74.50
4406;DHT22;2216;53.806;11.598;2022-11-20T05:10:16;2.20;74.50
4406;DHT22;2216;53.806;11.598;2022-11-20T05:12:41;2.20;74.50
4406;DHT22;2216;53.806;11.598;2022-11-20T05:15:07;2.20;74.50
4406;DHT22;2216;53.806;11.598;2022-11-20T05:17:34;2.20;74.50
4406;DHT22;2216;53.806;11.598;2022-11-20T05:19:59;2.30;74.60
4406;DHT22;2216;53.806;11.598;2022-11-20T05:22:25;2.30;74.60
4406;DHT22;2216;53.806;11.598;2022-11-20T05:24:51;2.30;74.60
4406;DHT22;2216;53.806;11.598;2022-11-20T05:27:16;2.30;74.60
4406;DHT22;2216;53.806;11.598;2022-11-20T05:29:42;2.30;74.60
4406;DHT22;2216;53.806;11.598;2022-11-20T05:32:08;2.30;74.60
4406;DHT22;2216;53.806;11.598;2022-11-20T05:34:35;2.30;74.60
4406;DHT22;2216;53.806;11.598;2022-11-20T05:37:02;2.30;74.50
4406;DHT22;2216;53.806;11.598;2022-11-20T05:39:28;2.30;74.50
4406;DHT22;2216;53.806;11.598;2022-11-20T05:41:53;2.30;74.60
4406;DHT22;2216;53.806;11.598;2022-11-20T05:44:37;2.30;74.60
4406;DHT22;2216;53.806;11.598;2022-11-20T05:47:03;2.40;74.70
4406;DHT22;2216;53.806;11.598;2022-11-20T05:49:28;2.30;74.50
4406;DHT22;2216;53.806;11.598;2022-11-20T05:51:54;2.40;74.70
4406;DHT22;2216;53.806;11.598;2022-11-20T05:54:20;2.30;74.60
4406;DHT22;2216;53.806;11.598;2022-11-20T05:56:45;2.30;74.50
4406;DHT22;2216;53.806;11.598;2022-11-20T05:59:11;2.30;74.50
4406;DHT22;2216;53.806;11.598;2022-11-20T06:01:37;2.30;74.50
4406;DHT22;2216;53.806;11.598;2022-11-20T06:04:02;2.30;74.50
4406;DHT22;2216;53.806;11.598;2022-11-20T06:06:28;2.30;74.50
4406;DHT22;2216;53.806;11.598;2022-11-20T06:08:54;2.30;74.50
4406;DHT22;2216;53.806;11.598;2022-11-20T06:11:21;2.30;74.50
4406;DHT22;2216;53.806;11.598;2022-11-20T06:13:47;2.30;74.50
4406;DHT22;2216;53.806;11.598;2022-11-20T06:16:15;2.30;74.50
4406;DHT22;2216;53.806;11.598;2022-11-20T06:18:41;2.30;74.50
4406;DHT22;2216;53.806;11.598;2022-11-20T06:21:10;2.30;74.60
4406;DHT22;2216;53.806;11.598;2022-11-20T06:23:37;2.30;74.50
4406;DHT22;2216;53.806;11.598;2022-11-20T06:26:08;2.30;74.50
4406;DHT22;2216;53.806;11.598;2022-11-20T06:28:41;2.30;74.50
4406;DHT22;2216;53.806;11.598;2022-11-20T06:31:09;2.30;74.50
4406;DHT22;2216;53.806;11.598;2022-11-20T06:33:36;2.40;74.60
4406;DHT22;2216;53.806;11.598;2022-11-20T06:36:03;2.30;74.60
4406;DHT22;2216;53.806;11.598;2022-11-20T06:38:29;2.30;74.50
4406;DHT22;2216;53.806;11.598;2022-11-20T06:40:55;2.30;74.50
4406;DHT22;2216;53.806;11.598;2022-11-20T06:43:22;2.30;74.50
4406;DHT22;2216;53.806;11.598;2022-11-20T06:45:52;2.40;74.60
4406;DHT22;2216;53.806;11.598;2022-11-20T06:48:19;2.30;74.50
4406;DHT22;2216;53.806;11.598;2022-11-20T06:50:44;2.30;74.60
4406;DHT22;2216;53.806;11.598;2022-11-20T06:53:10;2.30;74.50
4406;DHT22;2216;53.806;11.598;2022-11-20T06:55:35;2.30;74.60
4406;DHT22;2216;53.806;11.598;2022-11-20T06:58:01;2.30;74.60
4406;DHT22;2216;53.806;11.598;2022-11-20T07:00:27;2.30;74.60
4406;DHT22;2216;53.806;11.598;2022-11-20T07:02:52;2.30;74.60
4406;DHT22;2216;53.806;11.598;2022-11-20T07:05:18;2.30;74.60
4406;DHT22;2216;53.806;11.598;2022-11-20T07:07:44;2.30;74.60
4406;DHT22;2216;53.806;11.598;2022-11-20T07:10:10;2.30;74.60
4406;DHT22;2216;53.806;11.598;2022-11-20T07:12:35;2.30;74.60
4406;DHT22;2216;53.806;11.598;2022-11-20T07:15:01;2.30;74.60
4406;DHT22;2216;53.806;11.598;2022-11-20T07:17:27;2.40;74.70
4406;DHT22;2216;53.806;11.598;2022-11-20T07:19:52;2.30;74.60
4406;DHT22;2216;53.806;11.598;2022-11-20T07:22:18;2.30;74.60
4406;DHT22;2216;53.806;11.598;2022-11-20T07:24:47;2.30;74.60
4406;DHT22;2216;53.806;11.598;2022-11-20T07:27:12;2.30;74.60
4406;DHT22;2216;53.806;11.598;2022-11-20T07:29:38;2.30;74.60
4406;DHT22;2216;53.806;11.598;2022-11-20T07:32:04;2.30;74.60
4406;DHT22;2216;53.806;11.598;2022-11-20T07:34:30;2.40;75.40
4406;DHT22;2216;53.806;11.598;2022-11-20T07:36:56;2.40;74.70
4406;DHT22;2216;53.806;11.598;2022-11-20T07:39:21;2.40;74.70
4406;DHT22;2216;53.806;11.598;2022-11-20T07:41:47;2.40;74.70
4406;DHT22;2216;53.806;11.598;2022-11-20T07:44:12;2.50;74.80
4406;DHT22;2216;53.806;11.598;2022-11-20T07:46:38;2.40;74.80
4406;DHT22;2216;53.806;11.598;2022-11-20T07:49:04;2.40;74.80
4406;DHT22;2216;53.806;11.598;2022-11-20T07:51:29;2.40;74.80
4406;DHT22;2216;53.806;11.598;2022-11-20T07:53:55;2.40;74.90
4406;DHT22;2216;53.806;11.598;2022-11-20T07:56:21;2.40;74.80
4406;DHT22;2216;53.806;11.598;2022-11-20T07:58:46;2.40;74.80
4406;DHT22;2216;53.806;11.598;2022-11-20T08:01:12;2.40;74.80
4406;DHT22;2216;53.806;11.598;2022-11-20T08:03:37;2.40;74.80
4406;DHT22;2216;53.806;11.598;2022-11-20T08:06:04;2.40;74.80
4406;DHT22;2216;53.806;11.598;2022-11-20T08:08:30;2.40;74.80
4406;DHT22;2216;53.806;11.598;2022-11-20T08:10:58;2.50;74.90
4406;DHT22;2216;53.806;11.598;2022-11-20T08:13:44;2.50;75.20
4406;DHT22;2216;53.806;11.598;2022-11-20T08:16:28;2.50;75.60
4406;DHT22;2216;53.806;11.598;2022-11-20T08:18:54;2.60;75.00
4406;DHT22;2216;53.806;11.598;2022-11-20T08:21:20;2.50;75.00
4406;DHT22;2216;53.806;11.598;2022-11-20T08:23:46;2.50;75.00
4406;DHT22;2216;53.806;11.598;2022-11-20T08:26:11;2.50;75.00
4406;DHT22;2216;53.806;11.598;2022-11-20T08:28:37;2.50;75.00
4406;DHT22;2216;53.806;11.598;2022-11-20T08:31:03;2.50;75.00
4406;DHT22;2216;53.806;11.598;2022-11-20T08:33:30;2.60;75.10
4406;DHT22;2216;53.806;11.598;2022-11-20T08:36:02;2.60;75.10
4406;DHT22;2216;53.806;11.598;2022-11-20T08:38:29;2.70;75.20
4406;DHT22;2216;53.806;11.598;2022-11-20T08:41:03;2.60;75.10
4406;DHT22;2216;53.806;11.598;2022-11-20T08:43:49;2.70;75.20
4406;DHT22;2216;53.806;11.598;2022-11-20T08:46:26;2.70;75.20
4406;DHT22;2216;53.806;11.598;2022-11-20T08:48:57;2.70;75.20
4406;DHT22;2216;53.806;11.598;2022-11-20T08:51:22;2.70;75.20
4406;DHT22;2216;53.806;11.598;2022-11-20T08:53:48;2.80;75.30
4406;DHT22;2216;53.806;11.598;2022-11-20T08:56:14;2.60;75.20
4406;DHT22;2216;53.806;11.598;2022-11-20T08:58:40;2.60;75.20
4406;DHT22;2216;53.806;11.598;2022-11-20T09:01:06;2.80;75.30
4406;DHT22;2216;53.806;11.598;2022-11-20T09:03:32;2.80;75.40
4406;DHT22;2216;53.806;11.598;2022-11-20T09:05:59;2.80;75.30
4406;DHT22;2216;53.806;11.598;2022-11-20T09:08:26;2.80;75.30
4406;DHT22;2216;53.806;11.598;2022-11-20T09:10:53;2.90;75.30
4406;DHT22;2216;53.806;11.598;2022-11-20T09:13:20;2.80;75.20
4406;DHT22;2216;53.806;11.598;2022-11-20T09:15:47;2.80;75.20
4406;DHT22;2216;53.806;11.598;2022-11-20T09:18:12;2.80;75.20
4406;DHT22;2216;53.806;11.598;2022-11-20T09:20:38;2.80;75.20
4406;DHT22;2216;53.806;11.598;2022-11-20T09:23:04;2.90;75.30
4406;DHT22;2216;53.806;11.598;2022-11-20T09:25:29;2.90;75.30
4406;DHT22;2216;53.806;11.598;2022-11-20T09:27:59;2.90;75.40
4406;DHT22;2216;53.806;11.598;2022-11-20T09:30:25;2.90;75.40
4406;DHT22;2216;53.806;11.598;2022-11-20T09:32:51;3.00;75.60
4406;DHT22;2216;53.806;11.598;2022-11-20T09:35:17;3.00;75.60
4406;DHT22;2216;53.806;11.598;2022-11-20T09:37:43;3.00;75.70
4406;DHT22;2216;53.806;11.598;2022-11-20T09:40:29;3.10;75.90
4406;DHT22;2216;53.806;11.598;2022-11-20T09:48:25;3.20;76.30
4406;DHT22;2216;53.806;11.598;2022-11-20T09:51:53;3.40;76.50
4406;DHT22;2216;53.806;11.598;2022-11-20T09:54:31;3.40;76.60
4406;DHT22;2216;53.806;11.598;2022-11-20T09:57:02;3.50;76.70
4406;DHT22;2216;53.806;11.598;2022-11-20T09:59:42;3.60;76.70
4406;DHT22;2216;53.806;11.598;2022-11-20T10:02:16;3.60;76.50
4406;DHT22;2216;53.806;11.598;2022-11-20T10:07:42;3.70;76.00
4406;DHT22;2216;53.806;11.598;2022-11-20T10:10:34;3.70;75.90
4406;DHT22;2216;53.806;11.598;2022-11-20T10:13:27;3.70;75.80
4406;DHT22;2216;53.806;11.598;2022-11-20T10:22:47;3.70;75.80
4406;DHT22;2216;53.806;11.598;2022-11-20T10:30:50;3.80;76.10
4406;DHT22;2216;53.806;11.598;2022-11-20T10:33:23;3.80;76.20
4406;DHT22;2216;53.806;11.598;2022-11-20T10:36:05;3.80;76.10
4406;DHT22;2216;53.806;11.598;2022-11-20T10:38:47;3.80;75.90
4406;DHT22;2216;53.806;11.598;2022-11-20T10:41:23;3.80;75.70
4406;DHT22;2216;53.806;11.598;2022-11-20T10:46:45;3.80;75.60
4406;DHT22;2216;53.806;11.598;2022-11-20T10:49:16;3.90;75.60
4406;DHT22;2216;53.806;11.598;2022-11-20T10:58:18;3.90;75.90
4406;DHT22;2216;53.806;11.598;2022-11-20T11:00:32;3.90;76.00
4406;DHT22;2216;53.806;11.598;2022-11-20T11:02:58;3.90;76.10
4406;DHT22;2216;53.806;11.598;2022-11-20T11:05:34;3.90;76.10
4406;DHT22;2216;53.806;11.598;2022-11-20T11:08:07;3.90;76.30
4406;DHT22;2216;53.806;11.598;2022-11-20T11:10:47;4.00;76.30
4406;DHT22;2216;53.806;11.598;2022-11-20T11:13:21;4.00;76.20
4406;DHT22;2216;53.806;11.598;2022-11-20T11:15:48;4.00;76.20
4406;DHT22;2216;53.806;11.598;2022-11-20T11:18:27;4.00;76.10
4406;DHT22;2216;53.806;11.598;2022-11-20T11:20:54;4.10;76.20
4406;DHT22;2216;53.806;11.598;2022-11-20T11:23:41;4.10;76.30
4406;DHT22;2216;53.806;11.598;2022-11-20T11:26:22;4.20;76.50
4406;DHT22;2216;53.806;11.598;2022-11-20T11:29:01;4.30;76.60
4406;DHT22;2216;53.806;11.598;2022-11-20T11:31:30;4.30;76.50
4406;DHT22;2216;53.806;11.598;2022-11-20T11:34:12;4.40;76.60
4406;DHT22;2216;53.806;11.598;2022-11-20T11:36:39;4.40;76.50
4406;DHT22;2216;53.806;11.598;2022-11-20T11:39:11;4.40;76.30
4406;DHT22;2216;53.806;11.598;2022-11-20T11:41:40;4.40;76.20
4406;DHT22;2216;53.806;11.598;2022-11-20T11:44:32;4.40;76.10
4406;DHT22;2216;53.806;11.598;2022-11-20T11:47:38;4.40;76.00
4406;DHT22;2216;53.806;11.598;2022-11-20T11:50:13;4.40;75.70
4406;DHT22;2216;53.806;11.598;2022-11-20T11:52:58;4.30;75.50
4406;DHT22;2216;53.806;11.598;2022-11-20T11:55:56;4.30;75.40
4406;DHT22;2216;53.806;11.598;2022-11-20T11:58:44;4.20;75.20
4406;DHT22;2216;53.806;11.598;2022-11-20T12:04:20;4.00;74.90
4406;DHT22;2216;53.806;11.598;2022-11-20T12:07:00;4.00;74.90
4406;DHT22;2216;53.806;11.598;2022-11-20T12:09:37;3.90;75.60
4406;DHT22;2216;53.806;11.598;2022-11-20T12:12:14;3.80;74.90
4406;DHT22;2216;53.806;11.598;2022-11-20T12:14:46;3.80;74.90
4406;DHT22;2216;53.806;11.598;2022-11-20T12:17:15;3.90;75.00
4406;DHT22;2216;53.806;11.598;2022-11-20T12:19:40;3.70;74.90
4406;DHT22;2216;53.806;11.598;2022-11-20T12:22:43;3.70;75.00
4406;DHT22;2216;53.806;11.598;2022-11-20T12:25:22;3.70;74.90
4406;DHT22;2216;53.806;11.598;2022-11-20T12:28:02;3.70;75.00
4406;DHT22;2216;53.806;11.598;2022-11-20T12:30:47;3.60;75.00
4406;DHT22;2216;53.806;11.598;2022-11-20T12:33:51;3.60;75.10
4406;DHT22;2216;53.806;11.598;2022-11-20T12:39:35;3.60;75.30
4406;DHT22;2216;53.806;11.598;2022-11-20T12:45:35;3.60;75.40
4406;DHT22;2216;53.806;11.598;2022-11-20T12:48:32;3.60;75.40
4406;DHT22;2216;53.806;11.598;2022-11-20T12:57:40;3.60;75.70
4406;DHT22;2216;53.806;11.598;2022-11-20T13:00:18;3.70;75.80
4406;DHT22;2216;53.806;11.598;2022-11-20T13:06:16;3.70;76.10
4406;DHT22;2216;53.806;11.598;2022-11-20T13:08:58;3.80;76.30
4406;DHT22;2216;53.806;11.598;2022-11-20T13:11:58;3.90;76.50
4406;DHT22;2216;53.806;11.598;2022-11-20T13:18:03;4.10;76.60
4406;DHT22;2216;53.806;11.598;2022-11-20T13:20:33;4.40;76.70
4406;DHT22;2216;53.806;11.598;2022-11-20T13:22:59;4.20;76.50
4406;DHT22;2216;53.806;11.598;2022-11-20T13:25:33;4.20;76.40
4406;DHT22;2216;53.806;11.598;2022-11-20T13:28:03;4.30;76.30
4406;DHT22;2216;53.806;11.598;2022-11-20T13:30:51;4.30;76.20
4406;DHT22;2216;53.806;11.598;2022-11-20T13:33:30;4.20;76.00
4406;DHT22;2216;53.806;11.598;2022-11-20T13:38:43;4.20;75.70
4406;DHT22;2216;53.806;11.598;2022-11-20T13:41:11;4.20;75.50
4406;DHT22;2216;53.806;11.598;2022-11-20T13:44:25;4.10;75.30
4406;DHT22;2216;53.806;11.598;2022-11-20T13:46:55;4.10;75.20
4406;DHT22;2216;53.806;11.598;2022-11-20T13:49:32;4.00;75.10
4406;DHT22;2216;53.806;11.598;2022-11-20T13:52:20;3.90;75.00
4406;DHT22;2216;53.806;11.598;2022-11-20T14:03:42;3.60;74.60
4406;DHT22;2216;53.806;11.598;2022-11-20T14:08:53;3.50;74.90
4406;DHT22;2216;53.806;11.598;2022-11-20T14:11:22;3.40;74.90
4406;DHT22;2216;53.806;11.598;2022-11-20T14:16:25;3.40;75.10
4406;DHT22;2216;53.806;11.598;2022-11-20T14:18:52;3.40;74.90
4406;DHT22;2216;53.806;11.598;2022-11-20T14:21:37;3.20;74.80
4406;DHT22;2216;53.806;11.598;2022-11-20T14:24:04;3.20;75.00
4406;DHT22;2216;53.806;11.598;2022-11-20T14:26:31;3.10;74.80
4406;DHT22;2216;53.806;11.598;2022-11-20T14:28:57;3.10;75.00
4406;DHT22;2216;53.806;11.598;2022-11-20T14:31:25;3.00;74.90
4406;DHT22;2216;53.806;11.598;2022-11-20T14:33:53;3.00;75.00
4406;DHT22;2216;53.806;11.598;2022-11-20T14:36:22;2.90;74.90
4406;DHT22;2216;53.806;11.598;2022-11-20T14:38:49;2.90;74.80
4406;DHT22;2216;53.806;11.598;2022-11-20T14:41:21;2.80;74.80
4406;DHT22;2216;53.806;11.598;2022-11-20T14:43:57;2.90;75.00
4406;DHT22;2216;53.806;11.598;2022-11-20T14:46:23;2.90;75.00
4406;DHT22;2216;53.806;11.598;2022-11-20T14:48:52;2.80;75.00
4406;DHT22;2216;53.806;11.598;2022-11-20T14:51:32;2.80;75.00
4406;DHT22;2216;53.806;11.598;2022-11-20T14:54:18;2.80;75.10
4406;DHT22;2216;53.806;11.598;2022-11-20T14:56:54;2.70;75.00
4406;DHT22;2216;53.806;11.598;2022-11-20T14:59:32;2.70;75.00
4406;DHT22;2216;53.806;11.598;2022-11-20T15:02:05;2.70;75.00
4406;DHT22;2216;53.806;11.598;2022-11-20T15:04:33;2.70;75.00
4406;DHT22;2216;53.806;11.598;2022-11-20T15:06:59;2.70;75.10
4406;DHT22;2216;53.806;11.598;2022-11-20T15:09:26;2.70;75.10
4406;DHT22;2216;53.806;11.598;2022-11-20T15:11:58;2.70;75.10
4406;DHT22;2216;53.806;11.598;2022-11-20T15:14:25;2.70;75.10
4406;DHT22;2216;53.806;11.598;2022-11-20T15:16:53;2.60;75.00
4406;DHT22;2216;53.806;11.598;2022-11-20T15:19:24;2.60;75.10
4406;DHT22;2216;53.806;11.598;2022-11-20T15:21:50;2.70;75.10
4406;DHT22;2216;53.806;11.598;2022-11-20T15:24:16;2.60;75.00
4406;DHT22;2216;53.806;11.598;2022-11-20T15:26:42;2.70;75.10
4406;DHT22;2216;53.806;11.598;2022-11-20T15:29:10;2.60;75.00
4406;DHT22;2216;53.806;11.598;2022-11-20T15:31:38;2.60;75.00
4406;DHT22;2216;53.806;11.598;2022-11-20T15:34:12;2.60;75.00
4406;DHT22;2216;53.806;11.598;2022-11-20T15:36:39;2.70;75.70
4406;DHT22;2216;53.806;11.598;2022-11-20T15:39:05;2.60;75.00
4406;DHT22;2216;53.806;11.598;2022-11-20T15:41:33;2.60;75.00
4406;DHT22;2216;53.806;11.598;2022-11-20T15:44:03;2.60;75.00
4406;DHT22;2216;53.806;11.598;2022-11-20T15:46:32;2.60;75.00
4406;DHT22;2216;53.806;11.598;2022-11-20T15:49:03;2.70;75.00
4406;DHT22;2216;53.806;11.598;2022-11-20T15:51:36;2.50;74.90
4406;DHT22;2216;53.806;11.598;2022-11-20T15:54:21;2.50;74.90
4406;DHT22;2216;53.806;11.598;2022-11-20T15:56:48;2.50;74.90
4406;DHT22;2216;53.806;11.598;2022-11-20T15:59:15;2.50;74.90
4406;DHT22;2216;53.806;11.598;2022-11-20T16:01:41;2.40;74.80
4406;DHT22;2216;53.806;11.598;2022-11-20T16:04:12;2.40;74.80
4406;DHT22;2216;53.806;11.598;2022-11-20T16:06:39;2.40;74.80
4406;DHT22;2216;53.806;11.598;2022-11-20T16:09:05;2.40;74.80
4406;DHT22;2216;53.806;11.598;2022-11-20T16:11:31;2.40;74.70
4406;DHT22;2216;53.806;11.598;2022-11-20T16:13:57;2.30;74.60
4406;DHT22;2216;53.806;11.598;2022-11-20T16:16:41;2.30;74.60
4406;DHT22;2216;53.806;11.598;2022-11-20T16:19:12;2.20;74.50
4406;DHT22;2216;53.806;11.598;2022-11-20T16:21:38;2.20;74.50
4406;DHT22;2216;53.806;11.598;2022-11-20T16:24:07;2.20;74.60
4406;DHT22;2216;53.806;11.598;2022-11-20T16:26:34;2.20;74.60
4406;DHT22;2216;53.806;11.598;2022-11-20T16:29:02;2.20;74.50
4406;DHT22;2216;53.806;11.598;2022-11-20T16:31:29;2.10;74.40
4406;DHT22;2216;53.806;11.598;2022-11-20T16:34:00;2.00;74.30
4406;DHT22;2216;53.806;11.598;2022-11-20T16:36:28;2.00;74.40
4406;DHT22;2216;53.806;11.598;2022-11-20T16:38:56;2.00;74.50
4406;DHT22;2216;53.806;11.598;2022-11-20T16:41:24;1.90;74.40
4406;DHT22;2216;53.806;11.598;2022-11-20T16:44:02;1.90;74.40
4406;DHT22;2216;53.806;11.598;2022-11-20T16:46:32;1.80;74.40
4406;DHT22;2216;53.806;11.598;2022-11-20T16:49:03;1.80;74.40
4406;DHT22;2216;53.806;11.598;2022-11-20T16:51:34;1.80;74.40
4406;DHT22;2216;53.806;11.598;2022-11-20T16:54:08;1.80;74.40
4406;DHT22;2216;53.806;11.598;2022-11-20T16:56:35;1.70;74.30
4406;DHT22;2216;53.806;11.598;2022-11-20T16:59:02;1.70;74.30
4406;DHT22;2216;53.806;11.598;2022-11-20T17:01:29;1.70;74.20
4406;DHT22;2216;53.806;11.598;2022-11-20T17:03:56;1.60;74.20
4406;DHT22;2216;53.806;11.598;2022-11-20T17:06:26;1.60;74.20
4406;DHT22;2216;53.806;11.598;2022-11-20T17:08:54;1.50;74.20
4406;DHT22;2216;53.806;11.598;2022-11-20T17:11:20;1.50;74.20
4406;DHT22;2216;53.806;11.598;2022-11-20T17:13:46;1.50;74.20
4406;DHT22;2216;53.806;11.598;2022-11-20T17:16:15;1.50;74.30
4406;DHT22;2216;53.806;11.598;2022-11-20T17:18:43;1.40;74.30
4406;DHT22;2216;53.806;11.598;2022-11-20T17:21:10;1.30;74.30
4406;DHT22;2216;53.806;11.598;2022-11-20T17:23:39;1.30;74.30
4406;DHT22;2216;53.806;11.598;2022-11-20T17:26:12;1.40;74.40
4406;DHT22;2216;53.806;11.598;2022-11-20T17:28:43;1.30;74.40
4406;DHT22;2216;53.806;11.598;2022-11-20T17:31:16;1.30;74.50
4406;DHT22;2216;53.806;11.598;2022-11-20T17:33:44;1.40;74.70
4406;DHT22;2216;53.806;11.598;2022-11-20T17:36:12;1.40;74.80
4406;DHT22;2216;53.806;11.598;2022-11-20T17:38:39;1.40;74.90